createdAt,value
2022-08-09T00:00:13.817Z,93790.13
2022-08-09T00:02:42.757Z,93782.34
2022-08-09T00:06:17.818Z,93789.22
2022-08-09T00:08:01.502Z,93791.47
2022-08-09T00:10:28.448Z,93791.72
2022-08-09T00:12:55.058Z,93771.44
2022-08-09T00:15:26.584Z,93776.22
2022-08-09T00:18:10.687Z,93781.75
2022-08-09T00:20:41.414Z,93789.94
2022-08-09T00:23:57.792Z,93789.06
2022-08-09T00:26:05.063Z,93789.44
2022-08-09T00:28:32.308Z,93790.28
2022-08-09T00:31:09.298Z,93787.75
2022-08-09T00:33:53.050Z,93787.28
2022-08-09T00:36:20.852Z,93787.31
2022-08-09T00:38:50.675Z,93779.78
2022-08-09T00:44:11.082Z,93765.75
2022-08-09T00:44:24.593Z,93761.28
2022-08-09T00:46:57.891Z,93760.59
2022-08-09T00:49:36.909Z,93784.78
2022-08-09T00:52:06.161Z,93778.19
2022-08-09T00:54:43.074Z,93776.09
2022-08-09T00:57:11.720Z,93780.41
2022-08-09T00:59:46.890Z,93778.09
2022-08-09T01:02:22.222Z,93775.69
2022-08-09T01:05:14.375Z,93782.69
2022-08-09T01:08:04.872Z,93782.22
2022-08-09T01:10:40.767Z,93784.13
2022-08-09T01:13:22.364Z,93789.06
2022-08-09T01:15:52.994Z,93785.31
2022-08-09T01:18:30.588Z,93788.66
2022-08-09T01:21:28.208Z,93794.81
2022-08-09T01:24:50.451Z,93802.16
2022-08-09T01:27:23.731Z,93803.50
2022-08-09T01:30:02.283Z,93803.13
2022-08-09T01:32:35.949Z,93810.75
2022-08-09T01:35:29.084Z,93811.81
2022-08-09T01:38:09.630Z,93803.63
2022-08-09T01:40:43.028Z,93809.59
2022-08-09T01:43:11.557Z,93798.78
2022-08-09T01:45:44.837Z,93815.59
2022-08-09T01:48:17.371Z,93812.72
2022-08-09T01:50:55.232Z,93811.09
2022-08-09T01:53:23.807Z,93811.91
2022-08-09T01:55:57.170Z,93817.22
2022-08-09T01:58:27.295Z,93822.16
2022-08-09T02:00:57.256Z,93803.31
2022-08-09T02:03:25.029Z,93829.94
2022-08-09T02:06:06.124Z,93820.09
2022-08-09T02:08:57.188Z,93816.81
2022-08-09T02:11:42.738Z,93824.41
2022-08-09T02:14:15.043Z,93816.63
2022-08-09T02:17:15.099Z,93834.44
2022-08-09T02:19:43.276Z,93822.97
2022-08-09T02:22:36.472Z,93824.19
2022-08-09T02:25:10.252Z,93811.09
2022-08-09T02:28:00.558Z,93831.97
2022-08-09T02:30:37.915Z,93834.03
2022-08-09T02:33:14.588Z,93834.44
2022-08-09T02:36:02.956Z,93825.44
2022-08-09T02:38:39.084Z,93832.81
2022-08-09T02:41:12.989Z,93835.84
2022-08-09T02:43:54.928Z,93835.25
2022-08-09T02:46:27.592Z,93835.69
2022-08-09T02:48:58.936Z,93832.38
2022-08-09T02:51:28.040Z,93835.25
2022-08-09T02:54:06.485Z,93834.22
2022-08-09T02:56:36.418Z,93840.97
2022-08-09T02:59:06.296Z,93843.00
2022-08-09T03:01:43.091Z,93838.69
2022-08-09T03:04:26.247Z,93840.13
2022-08-09T03:06:59.839Z,93835.66
2022-08-09T03:09:43.857Z,93834.84
2022-08-09T03:12:23.378Z,93839.34
2022-08-09T03:14:52.343Z,93835.06
2022-08-09T03:17:26.428Z,93825.41
2022-08-09T03:20:03.046Z,93834.00
2022-08-09T03:22:41.746Z,93832.78
2022-08-09T03:25:25.978Z,93831.94
2022-08-09T03:28:01.797Z,93835.22
2022-08-09T03:30:33.410Z,93828.28
2022-08-09T03:33:17.660Z,93818.56
2022-08-09T03:36:13.115Z,93826.38
2022-08-09T03:38:42.538Z,93835.34
2022-08-09T03:41:16.056Z,93830.06
2022-08-09T03:44:02.861Z,93832.69
2022-08-09T03:46:31.910Z,93826.00
2022-08-09T03:49:04.251Z,93830.19
2022-08-09T03:51:55.661Z,93827.59
2022-08-09T03:54:31.281Z,93835.78
2022-08-09T03:57:12.478Z,93847.06
2022-08-09T03:59:54.530Z,93836.34
2022-08-09T04:02:26.755Z,93848.28
2022-08-09T04:04:56.825Z,93838.22
2022-08-09T04:07:46.974Z,93840.75
2022-08-09T04:10:13.203Z,93836.78
2022-08-09T04:12:44.648Z,93837.88
2022-08-09T04:15:29.450Z,93823.47
2022-08-09T04:17:58.860Z,93843.28
2022-08-09T04:20:25.983Z,93832.25
2022-08-09T04:22:53.415Z,93842.09
2022-08-09T04:25:20.800Z,93835.81
2022-08-09T04:27:49.101Z,93841.78
2022-08-09T04:30:20.911Z,93828.56
2022-08-09T04:32:51.092Z,93838.91
2022-08-09T04:35:18.736Z,93844.19
2022-08-09T04:37:49.628Z,93841.78
2022-08-09T04:40:19.532Z,93839.75
2022-08-09T04:43:03.571Z,93847.47
2022-08-09T04:45:31.070Z,93839.44
2022-08-09T04:48:07.977Z,93853.22
2022-08-09T04:50:38.175Z,93847.28
2022-08-09T04:53:11.642Z,93852.47
2022-08-09T04:55:57.510Z,93841.19
2022-08-09T04:58:25.970Z,93851.38
2022-08-09T05:00:54.455Z,93854.69
2022-08-09T05:03:41.131Z,93845.91
2022-08-09T05:06:18.273Z,93839.75
2022-08-09T05:09:00.787Z,93852.66
2022-08-09T05:11:32.278Z,93846.72
2022-08-09T05:14:06.151Z,93843.44
2022-08-09T05:16:58.290Z,93854.91
2022-08-09T05:19:24.491Z,93852.66
2022-08-09T05:21:55.428Z,93844.03
2022-08-09T05:24:24.097Z,93837.28
2022-08-09T05:26:52.992Z,93849.91
2022-08-09T05:29:21.472Z,93836.84
2022-08-09T05:31:57.482Z,93840.50
2022-08-09T05:34:32.683Z,93844.78
2022-08-09T05:37:05.273Z,93842.09
2022-08-09T05:39:42.706Z,93853.63
2022-08-09T05:42:17.361Z,93850.09
2022-08-09T05:44:50.718Z,93843.72
2022-08-09T05:47:19.311Z,93854.56
2022-08-09T05:50:23.579Z,93851.19
2022-08-09T05:52:36.294Z,93854.41
2022-08-09T05:55:08.838Z,93841.84
2022-08-09T05:57:51.145Z,93859.75
2022-08-09T06:00:28.717Z,93861.13
2022-08-09T06:03:00.476Z,93858.19
2022-08-09T06:05:50.241Z,93861.38
2022-08-09T06:08:19.831Z,93834.31
2022-08-09T06:10:51.509Z,93842.78
2022-08-09T06:13:18.768Z,93843.28
2022-08-09T06:15:51.617Z,93843.44
2022-08-09T06:18:25.507Z,93837.88
2022-08-09T06:20:57.041Z,93818.50
2022-08-09T06:23:54.933Z,93848.81
2022-08-09T06:26:20.875Z,93846.97
2022-08-09T06:29:00.190Z,93831.47
2022-08-09T06:31:31.194Z,93843.38
2022-08-09T06:34:06.567Z,93837.13
2022-08-09T06:36:34.072Z,93840.47
2022-08-09T06:39:02.350Z,93832.94
2022-08-09T06:41:40.557Z,93837.88
2022-08-09T06:44:18.319Z,93840.72
2022-08-09T06:46:45.766Z,93820.25
2022-08-09T06:49:12.788Z,93842.81
2022-08-09T06:51:43.011Z,93848.44
2022-08-09T06:54:14.647Z,93847.09
2022-08-09T06:56:45.563Z,93839.63
2022-08-09T07:00:50.915Z,93840.59
2022-08-09T07:02:03.935Z,93846.53
2022-08-09T07:04:32.070Z,93840.13
2022-08-09T07:07:00.120Z,93830.56
2022-08-09T07:09:57.035Z,93822.78
2022-08-09T07:12:17.892Z,93835.28
2022-08-09T07:14:50.868Z,93816.50
2022-08-09T07:17:19.882Z,93842.22
2022-08-09T07:19:48.140Z,93838.41
2022-08-09T07:22:18.288Z,93827.22
2022-08-09T07:24:49.379Z,93830.09
2022-08-09T07:27:26.710Z,93838.84
2022-08-09T07:30:02.433Z,93822.78
2022-08-09T07:32:32.282Z,93843.03
2022-08-09T07:35:02.700Z,93828.50
2022-08-09T07:37:43.566Z,93838.97
2022-08-09T07:40:13.276Z,93841.50
2022-08-09T07:43:00.540Z,93837.28
2022-08-09T07:45:37.336Z,93833.63
2022-08-09T07:48:07.191Z,93830.03
2022-08-09T07:50:36.831Z,93835.28
2022-08-09T07:53:05.191Z,93839.00
2022-08-09T07:55:41.505Z,93835.50
2022-08-09T07:58:21.679Z,93831.09
2022-08-09T08:00:59.218Z,93829.13
2022-08-09T08:03:33.482Z,93813.13
2022-08-09T08:06:05.044Z,93811.44
2022-08-09T08:09:00.088Z,93827.13
2022-08-09T08:12:12.058Z,93827.19
2022-08-09T08:14:06.611Z,93821.00
2022-08-09T08:16:34.610Z,93818.84
2022-08-09T08:19:03.049Z,93818.78
2022-08-09T08:21:30.649Z,93823.88
2022-08-09T08:23:57.483Z,93813.06
2022-08-09T08:26:55.022Z,93820.09
2022-08-09T08:29:20.320Z,93818.47
2022-08-09T08:32:03.497Z,93794.91
2022-08-09T08:34:31.478Z,93807.16
2022-08-09T08:37:01.374Z,93814.31
2022-08-09T08:39:28.357Z,93819.22
2022-08-09T08:41:55.210Z,93799.53
2022-08-09T08:44:29.764Z,93824.00
2022-08-09T08:47:04.629Z,93822.19
2022-08-09T08:49:48.221Z,93816.88
2022-08-09T08:52:58.201Z,93814.25
2022-08-09T08:55:10.382Z,93806.91
2022-08-09T08:57:38.014Z,93819.44
2022-08-09T09:00:20.381Z,93810.44
2022-08-09T09:03:02.822Z,93807.75
2022-08-09T09:06:01.063Z,93821.47
2022-08-09T09:08:30.588Z,93806.47
2022-08-09T09:11:02.732Z,93812.09
2022-08-09T09:13:41.910Z,93807.56
2022-08-09T09:16:18.842Z,93813.53
2022-08-09T09:19:21.472Z,93811.53
2022-08-09T09:22:04.174Z,93793.75
2022-08-09T09:24:43.203Z,93804.59
2022-08-09T09:27:21.978Z,93812.75
2022-08-09T09:30:22.772Z,93810.16
2022-08-09T09:33:15.625Z,93805.84
2022-08-09T09:36:11.642Z,93815.16
2022-08-09T09:38:53.092Z,93809.66
2022-08-09T09:41:33.261Z,93809.16
2022-08-09T09:44:25.376Z,93802.75
2022-08-09T09:46:57.113Z,93806.44
2022-08-09T09:49:50.053Z,93812.53
2022-08-09T09:52:36.121Z,93801.72
2022-08-09T09:55:27.818Z,93808.66
2022-08-09T09:58:18.776Z,93811.72
2022-08-09T10:00:58.949Z,93811.75
2022-08-09T10:03:58.103Z,93807.47
2022-08-09T10:06:42.883Z,93806.66
2022-08-09T10:09:22.930Z,93800.16
2022-08-09T10:12:07.645Z,93800.16
2022-08-09T10:14:43.989Z,93791.75
2022-08-09T10:17:24.295Z,93814.78
2022-08-09T10:20:26.908Z,93806.69
2022-08-09T10:23:16.977Z,93807.75
2022-08-09T10:26:06.553Z,93807.50
2022-08-09T10:28:36.617Z,93809.38
2022-08-09T10:34:10.710Z,93804.78
2022-08-09T10:36:39.931Z,93796.91
2022-08-09T10:39:15.768Z,93782.56
2022-08-09T10:41:47.781Z,93796.88
2022-08-09T10:44:19.240Z,93791.97
2022-08-09T10:48:14.331Z,93790.31
2022-08-09T10:50:14.837Z,93788.22
2022-08-09T10:52:59.961Z,93781.16
2022-08-09T10:55:28.993Z,93776.81
2022-08-09T10:58:33.719Z,93786.00
2022-08-09T11:03:03.105Z,93783.75
2022-08-09T11:04:20.133Z,93792.97
2022-08-09T11:07:03.611Z,93797.06
2022-08-09T11:09:47.805Z,93794.03
2022-08-09T11:12:26.638Z,93791.88
2022-08-09T11:14:58.938Z,93793.72
2022-08-09T11:17:26.383Z,93793.78
2022-08-09T11:20:11.837Z,93784.72
2022-08-09T11:22:56.932Z,93783.91
2022-08-09T11:25:44.773Z,93772.81
2022-08-09T11:28:56.284Z,93784.47
2022-08-09T11:31:53.050Z,93787.50
2022-08-09T11:34:39.956Z,93788.31
2022-08-09T11:37:08.883Z,93773.06
2022-08-09T11:40:02.966Z,93785.78
2022-08-09T11:42:51.421Z,93782.03
2022-08-09T11:45:43.207Z,93789.28
2022-08-09T11:48:24.719Z,93791.78
2022-08-09T11:53:06.296Z,93793.28
2022-08-09T11:54:00.670Z,93786.28
2022-08-09T11:56:41.927Z,93785.94
2022-08-09T11:59:12.039Z,93785.00
2022-08-09T12:02:17.808Z,93794.53
2022-08-09T12:04:36.985Z,93789.31
2022-08-09T12:07:07.737Z,93788.38
2022-08-09T12:09:36.257Z,93791.16
2022-08-09T12:12:20.360Z,93789.97
2022-08-09T12:15:07.659Z,93791.09
2022-08-09T12:17:43.595Z,93790.38
2022-08-09T12:20:22.115Z,93789.41
2022-08-09T12:23:00.688Z,93776.94
2022-08-09T12:25:37.087Z,93778.78
2022-08-09T12:29:10.810Z,93784.50
2022-08-09T12:31:11.181Z,93787.13
2022-08-09T12:34:00.857Z,93782.16
2022-08-09T12:36:32.153Z,93791.03
2022-08-09T12:39:01.375Z,93791.94
2022-08-09T12:41:39.056Z,93790.75
2022-08-09T12:44:10.236Z,93793.94
2022-08-09T12:46:48.647Z,93784.97
2022-08-09T12:49:16.872Z,93783.94
2022-08-09T12:52:01.131Z,93791.56
2022-08-09T12:54:47.745Z,93791.72
2022-08-09T12:57:38.605Z,93781.69
2022-08-09T13:00:25.553Z,93796.44
2022-08-09T13:03:00.619Z,93787.31
2022-08-09T13:05:52.409Z,93781.34
2022-08-09T13:08:40.062Z,93780.53
2022-08-09T13:11:23.230Z,93783.94
2022-08-09T13:14:41.697Z,93776.63
2022-08-09T13:16:52.319Z,93780.47
2022-08-09T13:20:06.979Z,93775.50
2022-08-09T13:22:45.489Z,93776.63
2022-08-09T13:25:13.965Z,93776.94
2022-08-09T13:27:48.278Z,93778.75
2022-08-09T13:30:49.944Z,93772.53
2022-08-09T13:33:12.003Z,93770.47
2022-08-09T13:36:24.762Z,93774.59
2022-08-09T13:38:57.257Z,93762.53
2022-08-09T13:41:57.791Z,93771.13
2022-08-09T13:44:16.304Z,93756.19
2022-08-09T13:47:18.478Z,93761.78
2022-08-09T13:49:37.573Z,93756.19
2022-08-09T13:52:08.964Z,93760.41
2022-08-09T13:54:36.535Z,93758.78
2022-08-09T13:57:14.455Z,93756.13
2022-08-09T13:59:58.116Z,93750.34
2022-08-09T14:02:35.412Z,93757.38
2022-08-09T14:05:03.091Z,93760.34
2022-08-09T14:07:41.072Z,93756.31
2022-08-09T14:10:17.334Z,93756.00
2022-08-09T14:12:58.904Z,93760.06
2022-08-09T14:16:09.809Z,93757.75
2022-08-09T14:18:19.303Z,93769.19
2022-08-09T14:20:48.854Z,93756.41
2022-08-09T14:23:20.318Z,93744.97
2022-08-09T14:26:05.850Z,93749.16
2022-08-09T14:28:33.336Z,93752.28
2022-08-09T14:30:59.999Z,93751.78
2022-08-09T14:33:26.871Z,93754.47
2022-08-09T14:35:55.798Z,93747.16
2022-08-09T14:38:22.510Z,93743.53
2022-08-09T14:41:02.034Z,93740.59
2022-08-09T14:43:47.565Z,93758.91
2022-08-09T14:46:58.196Z,93756.94
2022-08-09T14:49:10.585Z,93757.28
2022-08-09T14:51:42.208Z,93741.91
2022-08-09T14:54:09.744Z,93741.81
2022-08-09T14:56:57.262Z,93743.31
2022-08-09T14:59:23.509Z,93742.88
2022-08-09T15:01:50.464Z,93751.31
2022-08-09T15:04:17.131Z,93745.91
2022-08-09T15:06:49.432Z,93745.97
2022-08-09T15:09:16.798Z,93741.41
2022-08-09T15:12:04.790Z,93756.72
2022-08-09T15:14:38.198Z,93751.16
2022-08-09T15:17:09.786Z,93743.94
2022-08-09T15:19:54.542Z,93750.53
2022-08-09T15:22:26.078Z,93748.78
2022-08-09T15:24:54.380Z,93754.78
2022-08-09T15:27:21.959Z,93746.38
2022-08-09T15:30:56.258Z,93742.44
2022-08-09T15:32:36.299Z,93759.06
2022-08-09T15:35:40.367Z,93755.97
2022-08-09T15:37:57.026Z,93753.88
2022-08-09T15:40:38.008Z,93749.63
2022-08-09T15:43:13.511Z,93752.84
2022-08-09T15:45:51.916Z,93745.53
2022-08-09T15:48:30.586Z,93730.19
2022-08-09T15:50:59.368Z,93736.69
2022-08-09T15:54:07.052Z,93722.66
2022-08-09T15:56:23.418Z,93740.84
2022-08-09T15:58:56.761Z,93735.59
2022-08-09T16:01:23.543Z,93729.50
2022-08-09T16:03:50.815Z,93731.38
2022-08-09T16:06:35.462Z,93726.97
2022-08-09T16:09:05.738Z,93730.19
2022-08-09T16:11:33.395Z,93723.09
2022-08-09T16:14:06.948Z,93727.59
2022-08-09T16:16:37.242Z,93722.31
2022-08-09T16:19:07.643Z,93724.03
2022-08-09T16:21:35.504Z,93744.38
2022-08-09T16:24:19.939Z,93747.06
2022-08-09T16:26:53.687Z,93741.28
2022-08-09T16:29:37.355Z,93742.38
2022-08-09T16:32:20.130Z,93745.59
2022-08-09T16:34:56.829Z,93727.63
2022-08-09T16:37:55.626Z,93725.56
2022-08-09T16:40:20.453Z,93748.69
2022-08-09T16:42:57.528Z,93738.84
2022-08-09T16:45:24.227Z,93740.22
2022-08-09T16:48:39.962Z,93741.25
2022-08-09T16:50:42.155Z,93749.22
2022-08-09T16:53:32.418Z,93729.97
2022-08-09T16:56:07.653Z,93734.97
2022-08-09T16:58:37.169Z,93720.25
2022-08-09T17:01:07.399Z,93746.47
2022-08-09T17:03:34.804Z,93747.59
2022-08-09T17:06:07.399Z,93733.13
2022-08-09T17:09:03.197Z,93736.72
2022-08-09T17:11:32.854Z,93730.34
2022-08-09T17:14:26.017Z,93744.16
2022-08-09T17:17:02.672Z,93744.72
2022-08-09T17:19:46.432Z,93728.22
2022-08-09T17:22:29.010Z,93751.78
2022-08-09T17:25:02.706Z,93756.31
2022-08-09T17:27:34.717Z,93758.56
2022-08-09T17:30:14.094Z,93759.59
2022-08-09T17:32:45.477Z,93761.91
2022-08-09T17:35:14.451Z,93751.69
2022-08-09T17:38:11.448Z,93719.84
2022-08-09T17:40:31.913Z,93754.06
2022-08-09T17:43:11.163Z,93756.75
2022-08-09T17:46:03.766Z,93764.91
2022-08-09T17:48:31.975Z,93754.66
2022-08-09T17:50:59.536Z,93752.53
2022-08-09T17:53:37.647Z,93748.16
2022-08-09T17:56:10.809Z,93763.91
2022-08-09T17:58:37.483Z,93767.66
2022-08-09T18:01:04.184Z,93761.47
2022-08-09T18:03:31.902Z,93771.47
2022-08-09T18:06:00.770Z,93759.59
2022-08-09T18:08:28.139Z,93770.41
2022-08-09T18:11:02.279Z,93765.28
2022-08-09T18:13:43.477Z,93776.03
2022-08-09T18:16:29.263Z,93769.56
2022-08-09T18:18:57.243Z,93773.06
2022-08-09T18:21:26.233Z,93770.34
2022-08-09T18:24:10.592Z,93775.22
2022-08-09T18:26:41.952Z,93760.59
2022-08-09T18:30:35.022Z,93783.53
2022-08-09T18:32:05.620Z,93786.22
2022-08-09T18:34:35.302Z,93777.31
2022-08-09T18:37:03.803Z,93783.97
2022-08-09T18:39:32.245Z,93785.69
2022-08-09T18:42:05.307Z,93785.50
2022-08-09T18:44:35.457Z,93787.22
2022-08-09T18:47:08.252Z,93780.03
2022-08-09T18:49:43.149Z,93786.00
2022-08-09T18:52:13.469Z,93793.25
2022-08-09T18:54:42.210Z,93783.56
2022-08-09T18:57:19.850Z,93781.69
2022-08-09T18:59:56.339Z,93799.78
2022-08-09T19:02:32.350Z,93799.06
2022-08-09T19:05:19.720Z,93804.75
2022-08-09T19:08:04.158Z,93801.25
2022-08-09T19:10:39.074Z,93808.03
2022-08-09T19:13:20.964Z,93809.97
2022-08-09T19:15:58.840Z,93792.72
2022-08-09T19:18:35.151Z,93802.94
2022-08-09T19:21:09.593Z,93807.13
2022-08-09T19:24:37.580Z,93804.72
2022-08-09T19:26:31.094Z,93815.03
2022-08-09T19:29:15.117Z,93816.53
2022-08-09T19:31:46.093Z,93820.91
2022-08-09T19:34:21.154Z,93819.44
2022-08-09T19:36:53.998Z,93803.38
2022-08-09T19:39:43.744Z,93827.22
2022-08-09T19:42:08.956Z,93824.22
2022-08-09T19:44:41.324Z,93800.84
2022-08-09T19:47:08.577Z,93818.06
2022-08-09T19:50:10.431Z,93829.00
2022-08-09T19:52:26.363Z,93840.19
2022-08-09T19:54:53.618Z,93833.09
2022-08-09T19:57:25.606Z,93823.84
2022-08-09T19:59:59.445Z,93837.88
2022-08-09T20:04:16.971Z,93833.38
2022-08-09T20:05:23.596Z,93823.16
2022-08-09T20:07:59.738Z,93826.91
2022-08-09T20:10:36.896Z,93825.53
2022-08-09T20:13:05.891Z,93825.22
2022-08-09T20:16:38.344Z,93818.91
2022-08-09T20:18:22.092Z,93818.97
2022-08-09T20:20:51.308Z,93827.69
2022-08-09T20:23:19.499Z,93832.97
2022-08-09T20:25:52.324Z,93829.25
2022-08-09T20:28:24.536Z,93836.84
2022-08-09T20:30:58.916Z,93839.38
2022-08-09T20:33:25.918Z,93820.69
2022-08-09T20:35:53.003Z,93832.88
2022-08-09T20:38:33.136Z,93827.38
2022-08-09T20:41:09.323Z,93831.81
2022-08-09T20:43:36.304Z,93826.31
2022-08-09T20:46:33.784Z,93833.00
2022-08-09T20:48:50.499Z,93814.16
2022-08-09T20:51:24.090Z,93823.28
2022-08-09T20:53:50.885Z,93834.75
2022-08-09T20:56:21.833Z,93822.25
2022-08-09T20:58:54.693Z,93834.19
2022-08-09T21:01:34.012Z,93829.06
2022-08-09T21:05:51.968Z,93834.66
2022-08-09T21:07:12.060Z,93826.03
2022-08-09T21:09:56.617Z,93823.94
2022-08-09T21:15:14.879Z,93828.50
2022-08-09T21:18:22.980Z,93824.53
2022-08-09T21:20:30.714Z,93830.81
2022-08-09T21:23:00.289Z,93828.03
2022-08-09T21:25:55.675Z,93831.28
2022-08-09T21:28:33.552Z,93834.66
2022-08-09T21:31:17.444Z,93833.00
2022-08-09T21:33:52.366Z,93830.56
2022-08-09T21:36:28.194Z,93820.41
2022-08-09T21:38:57.547Z,93828.84
2022-08-09T21:42:06.059Z,93828.84
2022-08-09T21:44:33.384Z,93823.16
2022-08-09T21:47:04.403Z,93814.03
2022-08-09T21:49:39.270Z,93809.47
2022-08-09T21:52:15.131Z,93815.25
2022-08-09T21:55:03.948Z,93816.50
2022-08-09T21:57:38.845Z,93814.28
2022-08-09T22:00:32.079Z,93822.56
2022-08-09T22:03:05.851Z,93819.38
2022-08-09T22:05:37.720Z,93813.69
2022-08-09T22:08:11.898Z,93809.84
2022-08-09T22:11:49.204Z,93807.69
2022-08-09T22:13:34.573Z,93814.41
2022-08-09T22:16:08.516Z,93808.75
2022-08-09T22:18:53.080Z,93795.06
2022-08-09T22:21:24.164Z,93804.44
2022-08-09T22:24:01.279Z,93797.97
2022-08-09T22:26:35.375Z,93807.03
2022-08-09T22:29:09.126Z,93789.56
2022-08-09T22:31:44.246Z,93803.97
2022-08-09T22:34:17.216Z,93797.69
2022-08-09T22:36:47.808Z,93796.69
2022-08-09T22:39:55.193Z,93794.78
2022-08-09T22:42:03.949Z,93805.47
2022-08-09T22:44:33.221Z,93802.13
2022-08-09T22:48:16.878Z,93804.09
2022-08-09T22:49:52.091Z,93806.94
2022-08-09T22:52:19.830Z,93794.94
2022-08-09T22:54:47.694Z,93812.31
2022-08-09T22:57:14.535Z,93791.28
2022-08-09T22:59:58.080Z,93813.88
2022-08-09T23:02:27.236Z,93794.22
2022-08-09T23:04:55.317Z,93803.03
2022-08-09T23:08:27.396Z,93808.16
2022-08-09T23:10:30.504Z,93796.88
2022-08-09T23:12:58.539Z,93805.63
2022-08-09T23:15:26.016Z,93808.22
2022-08-09T23:17:52.836Z,93806.03
2022-08-09T23:20:19.495Z,93793.81
2022-08-09T23:22:46.247Z,93799.94
2022-08-09T23:25:12.993Z,93803.09
2022-08-09T23:28:14.044Z,93804.75
2022-08-09T23:30:26.441Z,93808.72
2022-08-09T23:32:53.308Z,93801.09
2022-08-09T23:35:19.954Z,93813.78
2022-08-09T23:37:46.758Z,93810.09
2022-08-09T23:40:13.447Z,93796.53
2022-08-09T23:42:40.684Z,93794.16
2022-08-09T23:45:08.857Z,93773.16
2022-08-09T23:47:35.809Z,93792.78
2022-08-09T23:50:03.901Z,93792.25
2022-08-09T23:52:30.961Z,93791.44
2022-08-09T23:54:58.892Z,93763.53
2022-08-09T23:57:25.697Z,93776.34
